createdAt,value
2022-08-10T00:01:55.371Z,1.20
2022-08-10T00:05:03.274Z,1.10
2022-08-10T00:08:10.609Z,0.80
2022-08-10T00:11:18.672Z,0.90
2022-08-10T00:14:25.940Z,1.10
2022-08-10T00:17:36.570Z,0.80
2022-08-10T00:20:44.583Z,0.90
2022-08-10T00:23:52.009Z,1.00
2022-08-10T00:27:52.634Z,1.20
2022-08-10T00:30:05.064Z,0.90
2022-08-10T00:33:12.976Z,1.00
2022-08-10T00:36:20.901Z,1.00
2022-08-10T00:39:28.851Z,0.90
2022-08-10T00:42:36.879Z,0.90
2022-08-10T00:45:44.887Z,0.90
2022-08-10T00:49:00.148Z,1.50
2022-08-10T00:51:54.429Z,0.90
2022-08-10T00:55:02.007Z,0.90
2022-08-10T00:58:10.058Z,1.00
2022-08-10T01:02:07.313Z,1.00
2022-08-10T01:04:43.593Z,1.10
2022-08-10T01:07:27.739Z,1.20
2022-08-10T01:10:35.628Z,1.00
2022-08-10T01:13:43.339Z,1.10
2022-08-10T01:16:51.637Z,0.80
2022-08-10T01:19:59.028Z,1.10
2022-08-10T01:23:07.145Z,1.10
2022-08-10T01:26:30.640Z,0.90
2022-08-10T01:29:20.411Z,1.20
2022-08-10T01:32:28.455Z,1.10
2022-08-10T01:35:36.513Z,1.00
2022-08-10T01:38:43.804Z,1.00
2022-08-10T01:41:51.868Z,1.10
2022-08-10T01:44:59.482Z,1.20
2022-08-10T01:48:16.402Z,1.20
2022-08-10T01:51:12.272Z,1.10
2022-08-10T01:54:19.631Z,1.20
2022-08-10T01:57:27.426Z,1.20
2022-08-10T02:00:35.732Z,1.10
2022-08-10T02:04:04.184Z,1.60
2022-08-10T02:06:48.293Z,1.10
2022-08-10T02:09:55.665Z,1.10
2022-08-10T02:13:03.408Z,1.20
2022-08-10T02:16:11.757Z,1.30
2022-08-10T02:19:19.747Z,1.20
2022-08-10T02:22:37.010Z,1.40
2022-08-10T02:25:40.800Z,1.20
2022-08-10T02:28:37.296Z,1.40
2022-08-10T02:31:45.066Z,1.20
2022-08-10T02:34:46.192Z,1.40
2022-08-10T02:37:54.903Z,1.30
2022-08-10T02:42:18.118Z,1.20
2022-08-10T02:45:29.146Z,1.40
2022-08-10T02:47:12.867Z,1.30
2022-08-10T02:50:20.185Z,1.60
2022-08-10T02:53:55.500Z,1.20
2022-08-10T02:56:32.610Z,1.30
2022-08-10T02:59:40.569Z,1.70
2022-08-10T03:02:48.910Z,1.40
2022-08-10T03:05:56.690Z,1.20
2022-08-10T03:09:04.392Z,1.30
2022-08-10T03:12:37.651Z,1.40
2022-08-10T03:15:16.624Z,1.70
2022-08-10T03:18:24.233Z,1.40
2022-08-10T03:21:31.845Z,1.30
2022-08-10T03:24:39.094Z,1.50
2022-08-10T03:27:46.494Z,1.40
2022-08-10T03:30:54.359Z,1.50
2022-08-10T03:34:02.046Z,1.30
2022-08-10T03:37:09.816Z,1.40
2022-08-10T03:40:17.902Z,1.30
2022-08-10T03:43:25.730Z,1.30
2022-08-10T03:46:33.044Z,1.20
2022-08-10T03:49:41.412Z,1.40
2022-08-10T03:52:48.891Z,1.40
2022-08-10T03:56:28.290Z,1.50
2022-08-10T03:59:02.017Z,1.20
2022-08-10T04:02:46.398Z,1.70
2022-08-10T04:05:14.676Z,1.60
2022-08-10T04:08:22.626Z,1.80
2022-08-10T04:11:30.456Z,1.40
2022-08-10T04:14:51.407Z,1.60
2022-08-10T04:18:03.107Z,1.50
2022-08-10T04:20:48.520Z,1.40
2022-08-10T04:23:56.110Z,1.50
2022-08-10T04:27:03.707Z,1.60
2022-08-10T04:30:11.373Z,1.60
2022-08-10T04:33:19.200Z,1.30
2022-08-10T04:36:27.063Z,1.70
2022-08-10T04:39:34.824Z,1.20
2022-08-10T04:42:43.051Z,1.50
2022-08-10T04:45:51.815Z,1.40
2022-08-10T04:49:01.951Z,1.20
2022-08-10T04:52:10.470Z,1.70
2022-08-10T04:55:18.818Z,1.20
2022-08-10T04:58:26.230Z,1.40
2022-08-10T05:02:21.508Z,1.30
2022-08-10T05:04:39.535Z,1.30
2022-08-10T05:07:54.197Z,1.50
2022-08-10T05:10:52.151Z,1.70
2022-08-10T05:13:59.415Z,1.20
2022-08-10T05:17:07.509Z,1.70
2022-08-10T05:20:15.571Z,1.40
2022-08-10T05:23:22.945Z,1.30
2022-08-10T05:26:30.643Z,1.40
2022-08-10T05:29:37.991Z,1.30
2022-08-10T05:32:56.339Z,1.10
2022-08-10T05:35:55.516Z,1.40
2022-08-10T05:38:54.157Z,1.30
2022-08-10T05:42:02.157Z,1.70
2022-08-10T05:45:10.942Z,1.30
2022-08-10T05:48:40.743Z,1.40
2022-08-10T05:51:23.077Z,1.60
2022-08-10T05:54:31.496Z,1.50
2022-08-10T05:57:39.414Z,1.30
2022-08-10T06:00:50.274Z,1.50
2022-08-10T06:03:47.455Z,1.50
2022-08-10T06:06:55.616Z,1.30
2022-08-10T06:10:03.884Z,1.40
2022-08-10T06:13:05.255Z,1.40
2022-08-10T06:16:10.199Z,1.50
2022-08-10T06:19:17.605Z,1.90
2022-08-10T06:22:25.516Z,1.50
2022-08-10T06:28:38.057Z,1.60
2022-08-10T06:31:49.879Z,1.20
2022-08-10T06:34:57.745Z,1.60
2022-08-10T06:38:05.415Z,1.40
2022-08-10T06:41:18.020Z,1.40
2022-08-10T06:44:16.878Z,1.70
2022-08-10T06:47:24.580Z,1.40
2022-08-10T06:50:45.370Z,1.30
2022-08-10T06:53:52.004Z,1.30
2022-08-10T06:56:55.817Z,1.30
2022-08-10T06:59:48.978Z,1.40
2022-08-10T07:02:56.634Z,1.40
2022-08-10T07:06:04.706Z,1.10
2022-08-10T07:09:15.301Z,1.30
2022-08-10T07:12:23.502Z,1.40
2022-08-10T07:15:57.288Z,1.70
2022-08-10T07:18:36.899Z,1.30
2022-08-10T07:21:44.571Z,1.30
2022-08-10T07:24:52.475Z,1.30
2022-08-10T07:28:01.938Z,1.30
2022-08-10T07:31:33.009Z,1.30
2022-08-10T07:34:28.650Z,1.20
2022-08-10T07:37:21.266Z,1.40
2022-08-10T07:40:28.741Z,1.60
2022-08-10T07:43:36.836Z,1.50
2022-08-10T07:46:44.717Z,1.30
2022-08-10T07:49:52.478Z,1.70
2022-08-10T07:53:00.152Z,1.30
2022-08-10T07:56:21.199Z,1.40
2022-08-10T07:59:13.353Z,1.30
2022-08-10T08:02:21.244Z,1.00
2022-08-10T08:05:53.709Z,1.30
2022-08-10T08:08:34.843Z,1.10
2022-08-10T08:11:42.781Z,1.20
2022-08-10T08:14:51.109Z,1.10
2022-08-10T08:18:00.433Z,1.50
2022-08-10T08:24:02.738Z,1.20
2022-08-10T08:24:31.348Z,0.90
2022-08-10T08:27:19.981Z,1.00
2022-08-10T08:30:28.342Z,1.40
2022-08-10T08:33:41.775Z,1.00
2022-08-10T08:36:40.344Z,1.00
2022-08-10T08:39:48.367Z,1.00
2022-08-10T08:42:56.339Z,0.90
2022-08-10T08:46:04.310Z,1.00
2022-08-10T08:49:12.421Z,1.00
2022-08-10T08:52:18.811Z,1.00
2022-08-10T08:56:04.062Z,1.00
2022-08-10T08:58:32.083Z,0.80
2022-08-10T09:01:41.315Z,0.80
2022-08-10T09:04:49.888Z,0.80
2022-08-10T09:08:02.023Z,0.80
2022-08-10T09:11:00.278Z,0.90
2022-08-10T09:14:07.871Z,0.90
2022-08-10T09:17:15.696Z,0.90
2022-08-10T09:20:16.254Z,0.80
2022-08-10T09:24:04.817Z,0.90
2022-08-10T09:26:31.190Z,0.60
2022-08-10T09:29:39.449Z,0.80
2022-08-10T09:36:16.445Z,0.60
2022-08-10T09:36:21.930Z,0.60
2022-08-10T09:38:58.599Z,0.80
2022-08-10T09:42:14.431Z,0.60
2022-08-10T09:45:11.046Z,0.50
2022-08-10T09:48:19.486Z,0.60
2022-08-10T09:51:44.760Z,0.80
2022-08-10T09:54:32.650Z,0.50
2022-08-10T09:57:43.516Z,0.60
2022-08-10T10:00:45.686Z,0.60
2022-08-10T10:03:53.611Z,0.90
2022-08-10T10:07:01.794Z,0.70
2022-08-10T10:10:09.275Z,0.70
2022-08-10T10:13:17.127Z,0.60
2022-08-10T10:16:24.738Z,0.70
2022-08-10T10:19:34.344Z,0.70
2022-08-10T10:22:33.661Z,0.70
2022-08-10T10:25:49.790Z,0.80
2022-08-10T10:31:52.384Z,0.60
2022-08-10T10:35:00.658Z,0.40
2022-08-10T10:38:08.335Z,0.60
2022-08-10T10:41:16.072Z,0.40
2022-08-10T10:44:24.415Z,0.60
2022-08-10T10:47:31.975Z,0.60
2022-08-10T10:50:40.739Z,0.50
2022-08-10T10:53:48.857Z,0.60
2022-08-10T10:56:56.358Z,0.70
2022-08-10T11:00:04.362Z,0.60
2022-08-10T11:03:12.153Z,0.60
2022-08-10T11:06:19.885Z,0.40
2022-08-10T11:10:04.935Z,0.50
2022-08-10T11:12:33.239Z,0.80
2022-08-10T11:15:43.030Z,0.60
2022-08-10T11:18:44.932Z,0.50
2022-08-10T11:21:53.286Z,0.60
2022-08-10T11:25:00.822Z,0.60
2022-08-10T11:28:09.234Z,0.80
2022-08-10T11:31:17.274Z,0.60
2022-08-10T11:34:47.829Z,0.90
2022-08-10T11:37:30.035Z,0.60
2022-08-10T11:40:35.235Z,0.60
2022-08-10T11:43:42.836Z,0.60
2022-08-10T11:46:50.998Z,0.50
2022-08-10T11:49:58.391Z,0.70
2022-08-10T11:53:06.604Z,0.60
2022-08-10T11:56:15.095Z,0.70
2022-08-10T11:59:22.575Z,0.70
2022-08-10T12:02:30.635Z,0.60
2022-08-10T12:05:52.501Z,0.40
2022-08-10T12:10:04.951Z,0.40
2022-08-10T12:11:49.358Z,0.60
2022-08-10T12:14:57.310Z,0.80
2022-08-10T12:18:05.251Z,0.40
2022-08-10T12:21:21.697Z,0.30
2022-08-10T12:24:18.773Z,0.50
2022-08-10T12:27:26.628Z,0.60
2022-08-10T12:30:34.556Z,0.40
2022-08-10T12:34:02.103Z,0.50
2022-08-10T12:36:47.748Z,0.70
2022-08-10T12:40:17.590Z,0.50
2022-08-10T12:43:13.026Z,0.50
2022-08-10T12:46:07.141Z,0.40
2022-08-10T12:49:15.450Z,0.60
2022-08-10T12:52:23.405Z,0.40
2022-08-10T12:55:31.568Z,0.40
2022-08-10T12:58:59.928Z,0.50
2022-08-10T13:02:06.752Z,0.50
2022-08-10T13:04:49.931Z,0.40
2022-08-10T13:08:25.540Z,0.40
2022-08-10T13:11:02.805Z,0.60
2022-08-10T13:14:10.657Z,0.70
2022-08-10T13:17:21.098Z,0.60
2022-08-10T13:20:29.087Z,0.60
2022-08-10T13:23:37.062Z,0.50
2022-08-10T13:27:11.673Z,0.40
2022-08-10T13:29:50.001Z,0.40
2022-08-10T13:32:59.851Z,0.50
2022-08-10T13:36:07.715Z,0.40
2022-08-10T13:39:15.582Z,0.50
2022-08-10T13:42:31.717Z,0.50
2022-08-10T13:45:28.738Z,0.70
2022-08-10T13:48:36.740Z,0.70
2022-08-10T13:51:56.606Z,0.30
2022-08-10T13:54:50.144Z,0.40
2022-08-10T13:57:57.630Z,0.40
2022-08-10T14:01:07.456Z,0.40
2022-08-10T14:04:15.304Z,0.50
2022-08-10T14:07:22.826Z,0.40
2022-08-10T14:11:10.154Z,0.50
2022-08-10T14:13:36.302Z,0.40
2022-08-10T14:16:43.714Z,0.50
2022-08-10T14:19:58.540Z,0.70
2022-08-10T14:22:54.945Z,0.50
2022-08-10T14:26:08.550Z,0.80
2022-08-10T14:29:06.246Z,0.60
2022-08-10T14:32:13.656Z,0.90
2022-08-10T14:36:23.922Z,0.70
2022-08-10T14:38:27.035Z,0.70
2022-08-10T14:42:01.083Z,0.90
2022-08-10T14:44:40.406Z,1.70
2022-08-10T14:47:55.319Z,2.20
2022-08-10T14:50:55.227Z,1.90
2022-08-10T14:54:03.450Z,1.80
2022-08-10T14:57:12.575Z,2.00
2022-08-10T15:00:28.050Z,2.20
2022-08-10T15:03:58.629Z,2.10
2022-08-10T15:06:30.184Z,2.50
2022-08-10T15:09:26.976Z,2.50
2022-08-10T15:12:28.507Z,2.70
2022-08-10T15:15:55.954Z,2.90
2022-08-10T15:18:41.300Z,3.50
2022-08-10T15:21:46.401Z,3.20
2022-08-10T15:24:51.945Z,4.20
2022-08-10T15:28:02.102Z,4.00
2022-08-10T15:31:02.395Z,4.40
2022-08-10T15:34:10.377Z,4.10
2022-08-10T15:37:47.368Z,4.10
2022-08-10T15:40:24.405Z,4.40
2022-08-10T15:43:25.002Z,4.40
2022-08-10T15:46:32.926Z,4.80
2022-08-10T15:49:41.968Z,4.60
2022-08-10T15:53:01.960Z,4.60
2022-08-10T15:55:47.386Z,4.30
2022-08-10T15:58:48.897Z,4.00
2022-08-10T16:02:14.205Z,4.70
2022-08-10T16:05:02.119Z,4.60
2022-08-10T16:08:09.839Z,4.60
2022-08-10T16:11:17.592Z,4.70
2022-08-10T16:14:19.283Z,3.90
2022-08-10T16:17:27.945Z,3.90
2022-08-10T16:20:53.265Z,3.80
2022-08-10T16:23:40.787Z,3.90
2022-08-10T16:26:48.448Z,3.30
2022-08-10T16:29:57.046Z,3.90
2022-08-10T16:33:05.535Z,3.10
2022-08-10T16:36:15.756Z,3.30
2022-08-10T16:39:59.253Z,3.30
2022-08-10T16:42:29.116Z,3.20
2022-08-10T16:45:37.187Z,2.70
2022-08-10T16:48:49.589Z,2.30
2022-08-10T16:51:47.664Z,2.20
2022-08-10T16:54:55.386Z,1.90
2022-08-10T16:58:03.402Z,2.10
2022-08-10T17:01:11.371Z,2.40
2022-08-10T17:04:18.672Z,1.90
2022-08-10T17:07:30.712Z,1.50
2022-08-10T17:10:27.709Z,1.30
2022-08-10T17:13:34.879Z,1.50
2022-08-10T17:16:42.959Z,1.30
2022-08-10T17:19:51.139Z,1.30
2022-08-10T17:22:58.433Z,1.00
2022-08-10T17:26:06.654Z,0.90
2022-08-10T17:29:54.132Z,0.90
2022-08-10T17:32:20.018Z,0.90
2022-08-10T17:35:28.226Z,0.80
2022-08-10T17:38:35.539Z,0.90
2022-08-10T17:41:43.522Z,1.30
2022-08-10T17:44:51.211Z,1.50
2022-08-10T17:47:58.878Z,1.20
2022-08-10T17:51:06.725Z,1.00
2022-08-10T17:54:14.546Z,0.90
2022-08-10T17:57:22.247Z,1.10
2022-08-10T18:00:29.913Z,1.30
2022-08-10T18:03:38.080Z,1.40
2022-08-10T18:06:46.025Z,1.30
2022-08-10T18:09:53.836Z,1.30
2022-08-10T18:13:01.663Z,0.90
2022-08-10T18:16:09.362Z,1.60
2022-08-10T18:19:17.010Z,1.40
2022-08-10T18:22:24.823Z,0.80
2022-08-10T18:25:32.639Z,1.70
2022-08-10T18:28:40.610Z,1.00
2022-08-10T18:31:48.344Z,1.30
2022-08-10T18:34:55.874Z,0.90
2022-08-10T18:38:04.134Z,1.80
2022-08-10T18:41:11.455Z,1.00
2022-08-10T18:44:19.287Z,1.30
2022-08-10T18:47:27.568Z,2.40
2022-08-10T18:50:34.828Z,1.50
2022-08-10T18:53:43.504Z,0.50
2022-08-10T18:56:51.334Z,0.70
2022-08-10T19:00:03.905Z,1.00
2022-08-10T19:03:04.471Z,0.70
2022-08-10T19:06:11.783Z,0.60
2022-08-10T19:09:42.162Z,1.00
2022-08-10T19:12:30.394Z,0.50
2022-08-10T19:15:27.477Z,0.80
2022-08-10T19:18:35.777Z,0.50
2022-08-10T19:21:43.702Z,0.50
2022-08-10T19:24:51.533Z,0.90
2022-08-10T19:27:59.842Z,0.70
2022-08-10T19:31:08.006Z,0.80
2022-08-10T19:34:16.078Z,0.90
2022-08-10T19:37:32.189Z,0.80
2022-08-10T19:40:44.567Z,0.90
2022-08-10T19:43:59.942Z,0.90
2022-08-10T19:46:39.482Z,1.10
2022-08-10T19:49:47.391Z,0.40
2022-08-10T19:52:55.319Z,1.00
2022-08-10T19:56:24.382Z,0.60
2022-08-10T19:59:09.107Z,0.50
2022-08-10T20:02:17.176Z,0.60
2022-08-10T20:05:25.617Z,0.30
2022-08-10T20:08:33.550Z,0.50
2022-08-10T20:11:46.321Z,0.40
2022-08-10T20:14:43.882Z,0.50
2022-08-10T20:17:55.360Z,0.40
2022-08-10T20:20:53.296Z,0.40
2022-08-10T20:24:01.059Z,0.50
2022-08-10T20:27:44.281Z,0.40
2022-08-10T20:30:14.494Z,0.40
2022-08-10T20:33:21.929Z,0.60
2022-08-10T20:36:29.782Z,0.60
2022-08-10T20:39:37.710Z,0.40
2022-08-10T20:42:45.156Z,0.50
2022-08-10T20:46:08.055Z,0.50
2022-08-10T20:48:58.264Z,0.60
2022-08-10T20:52:05.699Z,0.40
2022-08-10T20:55:13.830Z,0.40
2022-08-10T20:58:21.267Z,0.40
2022-08-10T21:02:06.626Z,0.50
2022-08-10T21:04:35.071Z,0.50
2022-08-10T21:08:01.070Z,0.40
2022-08-10T21:10:47.956Z,0.60
2022-08-10T21:13:56.248Z,0.40
2022-08-10T21:17:03.731Z,0.40
2022-08-10T21:20:12.405Z,0.40
2022-08-10T21:23:19.912Z,0.50
2022-08-10T21:26:29.496Z,0.60
2022-08-10T21:29:40.241Z,0.60
2022-08-10T21:32:48.434Z,0.50
2022-08-10T21:35:58.465Z,0.40
2022-08-10T21:42:14.716Z,0.30
2022-08-10T21:45:13.717Z,0.50
2022-08-10T21:48:17.879Z,0.40
2022-08-10T21:51:24.375Z,0.30
2022-08-10T21:54:20.656Z,0.30
2022-08-10T21:57:23.282Z,0.30
2022-08-10T22:00:31.588Z,0.50
2022-08-10T22:03:39.831Z,0.30
2022-08-10T22:06:52.228Z,0.40
2022-08-10T22:09:49.642Z,0.30
2022-08-10T22:12:58.713Z,0.40
2022-08-10T22:16:11.526Z,0.40
2022-08-10T22:19:14.807Z,0.50
2022-08-10T22:22:20.111Z,0.50
2022-08-10T22:25:17.476Z,0.40
2022-08-10T22:28:25.559Z,0.50
2022-08-10T22:31:25.013Z,0.40
2022-08-10T22:31:33.422Z,0.40
2022-08-10T22:34:41.920Z,0.40
2022-08-10T22:37:49.735Z,0.50
2022-08-10T22:40:57.175Z,0.60
2022-08-10T22:44:05.652Z,0.50
2022-08-10T22:47:13.117Z,0.60
2022-08-10T22:50:21.227Z,0.40
2022-08-10T22:53:29.247Z,0.50
2022-08-10T22:56:36.758Z,0.40
2022-08-10T22:59:44.970Z,0.40
2022-08-10T23:02:52.872Z,0.50
2022-08-10T23:06:00.519Z,0.40
2022-08-10T23:09:08.653Z,0.60
2022-08-10T23:12:16.542Z,0.50
2022-08-10T23:15:23.917Z,0.60
2022-08-10T23:18:31.677Z,0.50
2022-08-10T23:21:47.809Z,0.50
2022-08-10T23:24:45.695Z,0.50
2022-08-10T23:27:53.436Z,0.50
2022-08-10T23:30:56.268Z,0.60
2022-08-10T23:34:04.150Z,0.70
2022-08-10T23:37:11.970Z,0.60
2022-08-10T23:40:20.090Z,0.60
2022-08-10T23:43:46.792Z,0.60
2022-08-10T23:46:33.579Z,0.70
2022-08-10T23:49:41.372Z,1.10
2022-08-10T23:52:48.895Z,0.70
2022-08-10T23:55:57.249Z,0.60
2022-08-10T23:59:04.696Z,0.60
